Time;durP1;ratioP1;P1;durP2;ratioP2;P2;SDS_P1;SDS_P2;PMS_P1;PMS_P2;Temp;Humidity;BMP_temperature;BMP_pressure;BME280_temperature;BME280_humidity;BME280_pressure;Samples;Min_cycle;Max_cycle;Signal;HPM_P1;HPM_P2
2022/02/01 00:01:13;;;;;;;62.47;43.25;;;;;;;8.12;100.00;98637.78;5077539;28;20037;-78
2022/02/01 00:03:41;;;;;;;64.78;43.53;;;;;;;8.16;100.00;98635.84;5059714;28;20028;-78
2022/02/01 00:06:18;;;;;;;62.45;45.08;;;;;;;8.12;100.00;98629.47;5059215;28;20120;-77
2022/02/01 00:09:02;;;;;;;61.33;43.33;;;;;;;8.12;100.00;98623.91;5059396;28;20111;-77
2022/02/01 00:14:43;;;;;;;55.47;37.78;;;;;;;8.21;100.00;98631.91;5077606;28;20039;-77
2022/02/01 00:38:59;;;;;;;3.95;2.28;;;;;;;7.06;88.17;98690.84;5075742;28;20394;-76
2022/02/01 00:41:31;;;;;;;2.97;1.27;;;;;;;7.08;84.46;98682.97;5057876;28;20028;-76
2022/02/01 00:44:01;;;;;;;1.52;1.38;;;;;;;7.17;83.61;98685.44;5075752;28;20028;-76
2022/02/01 00:46:34;;;;;;;1.48;1.38;;;;;;;7.14;83.03;98687.00;5057636;28;20020;-75
2022/02/01 00:49:00;;;;;;;3.38;2.20;;;;;;;7.14;81.60;98687.00;5057617;28;20040;-75
2022/02/01 00:51:25;;;;;;;2.20;2.00;;;;;;;7.04;81.14;98687.66;5057628;28;20033;-76
2022/02/01 00:53:51;;;;;;;5.82;2.55;;;;;;;7.14;83.50;98692.53;5057842;28;20032;-75
2022/02/01 00:56:16;;;;;;;3.17;2.20;;;;;;;7.08;83.69;98686.56;5057966;28;20030;-75
2022/02/01 00:58:46;;;;;;;1.27;1.17;;;;;;;7.04;83.97;98693.19;5057473;28;20493;-75
2022/02/01 01:01:14;;;;;;;2.05;1.85;;;;;;;7.05;85.06;98683.72;5058064;28;20490;-76
2022/02/01 01:03:44;;;;;;;4.32;2.42;;;;;;;6.96;84.37;98694.25;5057883;28;20467;-76
2022/02/01 01:06:17;;;;;;;5.05;2.85;;;;;;;6.95;84.28;98692.69;5057727;28;20029;-76
2022/02/01 01:08:45;;;;;;;4.40;2.70;;;;;;;6.90;85.25;98698.53;5058039;28;20120;-75
2022/02/01 01:11:15;;;;;;;3.40;2.78;;;;;;;6.90;86.68;98698.53;5058935;28;20482;-76
2022/02/01 01:14:22;;;;;;;4.00;3.53;;;;;;;6.77;85.91;98698.78;5058261;28;20033;-75
2022/02/01 01:44:32;;;;;;;;;;;;;;;6.90;75.88;98651.53;5075644;28;20090;-76
2022/02/01 01:55:17;;;;;;;2.88;1.85;;;;;;;7.06;70.15;98652.13;5074717;28;20043;-76
2022/02/01 01:57:45;;;;;;;0.82;0.82;;;;;;;7.16;68.42;98643.16;5056413;28;20031;-75
2022/02/01 02:00:26;;;;;;;0.88;0.70;;;;;;;7.22;67.61;98635.31;5074197;28;20028;-74
2022/02/01 02:02:55;;;;;;;2.88;1.40;;;;;;;7.28;66.16;98637.38;5056258;28;20020;-75
2022/02/01 02:05:23;;;;;;;1.85;1.20;;;;;;;7.23;67.32;98629.41;5056317;28;20040;-75
2022/02/01 02:07:50;;;;;;;3.97;1.83;;;;;;;7.26;67.37;98634.19;5056227;28;20032;-75
2022/02/01 02:10:16;;;;;;;1.80;1.00;;;;;;;7.38;65.06;98629.56;5055674;28;20054;-75
2022/02/01 02:15:49;;;;;;;1.88;1.48;;;;;;;7.43;63.67;98638.31;5043087;28;20044;-75
2022/02/01 02:18:19;;;;;;;2.20;1.10;;;;;;;7.49;63.50;98620.19;5056305;28;20043;-76
2022/02/01 02:20:54;;;;;;;3.42;1.05;;;;;;;7.56;62.62;98622.22;5055979;28;20175;-75
2022/02/01 02:23:21;;;;;;;2.78;1.20;;;;;;;7.57;62.43;98632.94;5055965;28;20054;-75
2022/02/01 02:25:50;;;;;;;1.08;0.90;;;;;;;7.67;61.78;98609.31;5056258;28;20041;-75
2022/02/01 02:28:17;;;;;;;1.95;1.10;;;;;;;7.65;61.57;98614.41;5073856;28;20036;-76
2022/02/01 02:30:45;;;;;;;3.03;1.30;;;;;;;7.64;61.67;98615.59;5055923;28;20024;-75
2022/02/01 02:33:12;;;;;;;1.73;1.17;;;;;;;7.67;61.45;98628.69;5056094;28;20467;-75
2022/02/01 02:35:59;;;;;;;2.05;1.17;;;;;;;7.69;60.59;98612.50;5073709;28;20054;-76
2022/02/01 02:38:34;;;;;;;1.20;0.70;;;;;;;7.67;60.52;98614.84;5055742;28;20482;-76
2022/02/01 02:41:24;;;;;;;1.92;1.13;;;;;;;7.67;60.32;98609.31;5055790;28;20036;-76
2022/02/01 02:46:41;;;;;;;0.73;0.70;;;;;;;7.67;60.27;98602.97;5074098;28;20067;-75
2022/02/01 02:49:10;;;;;;;1.15;1.15;;;;;;;7.67;59.83;98594.66;5056048;28;20029;-75
2022/02/01 02:51:36;;;;;;;3.22;1.10;;;;;;;7.68;60.43;98601.81;5056267;28;20036;-75
2022/02/01 02:54:04;;;;;;;6.25;1.10;;;;;;;7.70;59.50;98610.50;5055878;28;20032;-74
2022/02/01 02:56:33;;;;;;;1.45;0.75;;;;;;;7.71;59.07;98609.34;5056210;28;20124;-75
2022/02/01 02:58:59;;;;;;;1.63;1.05;;;;;;;7.53;58.72;98560.16;5055518;28;20020;-75
2022/02/01 03:01:27;;;;;;;3.17;0.77;;;;;;;7.75;59.35;98599.09;5074373;28;20036;-75
2022/02/01 03:03:53;;;;;;;1.75;0.82;;;;;;;7.71;59.19;98576.09;5055612;28;20033;-75
2022/02/01 03:06:25;;;;;;;1.33;0.70;;;;;;;7.69;60.14;98573.72;5055563;28;20039;-76
2022/02/01 03:08:50;;;;;;;0.90;0.47;;;;;;;7.68;58.98;98599.81;5055912;28;20036;-75
2022/02/01 03:11:16;;;;;;;3.05;2.17;;;;;;;7.73;58.41;98607.78;5055467;28;20481;-75
2022/02/01 03:13:54;;;;;;;0.40;0.40;;;;;;;7.73;59.08;98605.03;5055543;28;20116;-75
2022/02/01 03:21:37;;;;;;;2.75;0.80;;;;;;;7.71;59.57;98629.50;5058852;28;20047;-76
2022/02/01 03:24:05;;;;;;;4.28;1.13;;;;;;;7.71;59.28;98653.63;5055477;28;20029;-75
2022/02/01 03:26:31;;;;;;;0.98;0.98;;;;;;;7.60;59.19;98636.91;5055382;28;20033;-75
2022/02/01 03:28:56;;;;;;;11.38;4.75;;;;;;;7.48;59.14;98642.72;5055383;28;20032;-75
2022/02/01 03:31:22;;;;;;;3.50;1.40;;;;;;;7.61;55.93;98672.50;5055603;28;20037;-75
2022/02/01 03:33:48;;;;;;;3.22;1.30;;;;;;;7.60;55.83;98653.53;5055331;28;20028;-73
2022/02/01 03:36:13;;;;;;;5.70;1.83;;;;;;;7.60;56.84;98661.81;5055819;28;20378;-73
2022/02/01 03:38:40;;;;;;;3.63;1.88;;;;;;;7.50;57.76;98640.38;5054160;28;20484;-75
2022/02/01 03:41:06;;;;;;;1.88;1.33;;;;;;;7.51;58.10;98641.94;5055397;28;20119;-75
2022/02/01 03:43:31;;;;;;;0.88;0.88;;;;;;;7.41;57.90;98650.97;5055510;28;20060;-75
2022/02/01 03:45:59;;;;;;;1.77;1.27;;;;;;;7.39;57.69;98650.53;5055676;28;20359;-74
2022/02/01 03:48:27;;;;;;;1.77;0.90;;;;;;;7.41;56.34;98668.34;5055464;28;20402;-74
2022/02/01 03:50:53;;;;;;;3.13;1.38;;;;;;;7.44;54.43;98641.88;5055126;28;20044;-73
2022/02/01 03:53:18;;;;;;;5.35;2.75;;;;;;;7.43;55.33;98654.13;5055164;28;20089;-74
2022/02/01 03:55:44;;;;;;;4.38;1.40;;;;;;;7.24;54.54;98622.69;5058264;28;20032;-73
2022/02/01 03:58:12;;;;;;;4.68;1.92;;;;;;;7.36;55.32;98649.31;5058759;28;20017;-75
2022/02/01 04:00:42;;;;;;;3.40;1.30;;;;;;;7.45;54.68;98646.25;5058726;28;20123;-74
2022/02/01 04:03:08;;;;;;;1.88;1.20;;;;;;;7.47;54.09;98653.00;5058787;28;20028;-74
2022/02/01 04:05:34;;;;;;;2.00;1.13;;;;;;;7.51;52.84;98658.56;5058413;28;20062;-73
2022/02/01 04:08:05;;;;;;;1.92;1.40;;;;;;;7.54;53.42;98655.03;5059366;28;20413;-75
2022/02/01 04:10:31;;;;;;;4.50;1.30;;;;;;;7.55;53.20;98640.81;5058543;28;20056;-74
2022/02/01 04:12:57;;;;;;;2.80;1.50;;;;;;;7.57;53.43;98660.63;5059677;28;20090;-74
2022/02/01 04:15:29;;;;;;;3.40;1.55;;;;;;;7.55;54.28;98667.69;5059526;28;20032;-75
2022/02/01 04:17:57;;;;;;;3.40;1.33;;;;;;;7.47;54.04;98650.25;5059080;28;20039;-75
2022/02/01 04:20:24;;;;;;;5.03;1.40;;;;;;;7.60;52.84;98664.59;5058745;28;20054;-75
2022/02/01 04:22:50;;;;;;;2.13;1.38;;;;;;;7.59;53.25;98663.78;5058412;28;20020;-75
2022/02/01 04:25:15;;;;;;;5.80;1.45;;;;;;;7.57;54.02;98649.56;5058071;28;20532;-75
2022/02/01 04:27:44;;;;;;;3.60;1.77;;;;;;;7.67;53.27;98666.63;5058033;28;20111;-75
2022/02/01 04:30:13;;;;;;;5.05;1.55;;;;;;;7.63;54.79;98647.25;5058078;28;20467;-75
2022/02/01 04:32:45;;;;;;;2.38;1.17;;;;;;;7.59;54.75;98646.41;5057965;28;20020;-75
2022/02/01 04:35:18;;;;;;;2.85;1.77;;;;;;;7.58;55.75;98647.56;5057764;28;20056;-75
2022/02/01 04:37:46;;;;;;;1.85;1.23;;;;;;;7.59;55.64;98663.00;5076160;28;20025;-75
2022/02/01 04:40:16;;;;;;;4.82;1.20;;;;;;;7.63;55.68;98658.31;5057417;28;20048;-75
2022/02/01 04:42:42;;;;;;;3.35;1.50;;;;;;;7.54;55.40;98647.53;5057421;28;20052;-75
2022/02/01 04:45:18;;;;;;;2.38;1.35;;;;;;;7.55;55.80;98656.63;5057759;28;20036;-75
2022/02/01 04:47:47;;;;;;;7.30;1.20;;;;;;;7.53;55.39;98679.16;5075376;28;20486;-75
2022/02/01 04:50:23;;;;;;;1.38;1.17;;;;;;;7.59;55.24;98661.03;5058216;28;20422;-75
2022/02/01 04:52:52;;;;;;;1.23;1.13;;;;;;;7.57;56.46;98657.84;5057547;28;20153;-75
2022/02/01 04:55:18;;;;;;;7.32;3.83;;;;;;;7.57;54.14;98654.28;5057531;28;20029;-75
2022/02/01 04:57:54;;;;;;;6.15;2.30;;;;;;;7.64;54.73;98670.97;5058105;28;20024;-75
2022/02/01 05:00:26;;;;;;;4.30;1.45;;;;;;;7.65;54.91;98655.16;5075310;28;20553;-75
2022/02/01 05:02:53;;;;;;;2.75;1.23;;;;;;;7.68;53.56;98684.84;5057434;28;20032;-75
2022/02/01 05:05:23;;;;;;;5.60;1.92;;;;;;;7.67;55.04;98677.69;5056875;28;20036;-75
2022/02/01 05:07:49;;;;;;;2.33;0.90;;;;;;;7.67;54.54;98670.22;5057288;28;20028;-75
2022/02/01 05:10:16;;;;;;;2.75;1.52;;;;;;;7.62;54.70;98676.09;5057561;28;20036;-75
2022/02/01 05:12:41;;;;;;;2.00;1.35;;;;;;;7.64;55.46;98700.63;5057532;28;20054;-76
2022/02/01 05:15:12;;;;;;;3.25;1.70;;;;;;;7.61;56.27;98700.19;5057136;28;20402;-75
2022/02/01 05:17:40;;;;;;;2.15;1.40;;;;;;;7.61;56.42;98713.22;5057105;28;20025;-75
2022/02/01 05:20:43;;;;;;;2.25;1.40;;;;;;;7.66;55.29;98728.72;5056917;28;20038;-75
2022/02/01 05:22:53;;;;;;;8.35;2.15;;;;;;;7.64;55.13;98726.34;5074447;28;20036;-74
2022/02/01 05:25:28;;;;;;;2.45;1.40;;;;;;;7.64;55.30;98759.56;5075168;28;20040;-74
2022/02/01 05:27:58;;;;;;;2.83;1.65;;;;;;;7.61;55.06;98777.69;5056936;28;20107;-75
2022/02/01 05:30:24;;;;;;;3.47;1.83;;;;;;;7.63;55.11;98760.72;5057464;28;20040;-75
2022/02/01 05:32:50;;;;;;;3.38;1.15;;;;;;;7.65;54.66;98761.13;5057181;28;20386;-75
2022/02/01 05:35:20;;;;;;;2.25;1.50;;;;;;;7.60;55.18;98764.25;5053044;28;20053;-75
2022/02/01 05:37:48;;;;;;;4.78;2.08;;;;;;;7.57;55.30;98765.81;5053635;28;20091;-75
2022/02/01 05:40:15;;;;;;;4.75;1.50;;;;;;;7.63;54.76;98762.72;5053855;28;20470;-75
2022/02/01 05:43:24;;;;;;;4.40;1.63;;;;;;;7.56;54.97;98775.28;5053379;28;20025;-75
2022/02/01 05:45:33;;;;;;;13.00;2.83;;;;;;;7.67;54.02;98763.53;5048783;28;20041;-75
2022/02/01 05:48:01;;;;;;;5.38;2.92;;;;;;;7.65;54.18;98777.75;5053187;28;20025;-75
2022/02/01 05:50:30;;;;;;;2.28;1.30;;;;;;;7.68;51.65;98754.84;5053186;28;20475;-76
2022/02/01 05:52:58;;;;;;;1.30;1.20;;;;;;;7.75;50.97;98770.75;5053087;28;20032;-74
2022/02/01 05:55:26;;;;;;;1.48;1.30;;;;;;;7.81;51.30;98780.31;5053062;28;20037;-75
2022/02/01 05:57:53;;;;;;;4.13;1.40;;;;;;;7.78;51.28;98786.63;5053947;28;20021;-75
2022/02/01 06:00:24;;;;;;;3.50;1.92;;;;;;;7.70;51.88;98785.72;5053165;28;20021;-74
2022/02/01 06:02:50;;;;;;;3.00;1.40;;;;;;;7.67;50.84;98807.81;5054144;28;20467;-73
2022/02/01 06:05:17;;;;;;;4.68;1.10;;;;;;;7.72;49.20;98801.94;5053812;28;20029;-74
2022/02/01 06:07:43;;;;;;;2.42;1.23;;;;;;;7.79;49.45;98800.06;5054429;28;20344;-74
2022/02/01 06:10:09;;;;;;;3.47;1.05;;;;;;;7.86;48.82;98816.75;5052561;28;20033;-75
2022/02/01 06:12:42;;;;;;;3.25;1.20;;;;;;;7.99;47.55;98819.28;5053076;28;20379;-74
2022/02/01 06:15:09;;;;;;;1.13;1.07;;;;;;;8.00;47.97;98823.66;5053323;28;20040;-75
2022/02/01 06:17:37;;;;;;;4.70;1.13;;;;;;;7.94;48.94;98845.34;5051978;28;20029;-75
2022/02/01 06:20:04;;;;;;;4.13;1.33;;;;;;;7.95;49.66;98860.00;5053165;28;20025;-74
2022/02/01 06:22:30;;;;;;;2.28;0.98;;;;;;;7.87;50.15;98846.03;5052655;28;20028;-74
2022/02/01 06:24:56;;;;;;;3.67;1.35;;;;;;;7.82;50.48;98862.19;5053184;28;20028;-74
2022/02/01 06:27:25;;;;;;;3.03;1.13;;;;;;;7.84;50.63;98874.50;5052621;28;20040;-74
2022/02/01 06:29:51;;;;;;;2.13;1.08;;;;;;;7.84;50.01;98893.91;5052551;28;20106;-75
2022/02/01 06:32:17;;;;;;;6.32;1.42;;;;;;;7.87;49.88;98887.59;5052532;28;20032;-75
2022/02/01 06:34:43;;;;;;;1.13;0.90;;;;;;;7.83;50.82;98884.00;5052102;28;20052;-75
2022/02/01 06:37:11;;;;;;;1.67;1.33;;;;;;;7.69;51.53;98881.03;5052542;28;20025;-75
2022/02/01 06:39:42;;;;;;;8.23;5.25;;;;;;;7.61;51.56;98909.78;5052632;28;20060;-76
2022/02/01 06:42:09;;;;;;;10.57;6.47;;;;;;;7.69;51.09;98911.47;5052722;28;20544;-75
2022/02/01 06:44:38;;;;;;;4.88;2.88;;;;;;;7.65;51.13;98902.31;5053250;28;20037;-75
2022/02/01 06:47:07;;;;;;;5.35;2.47;;;;;;;7.68;50.09;98917.41;5053644;28;20476;-76
2022/02/01 06:49:32;;;;;;;5.20;2.25;;;;;;;7.69;50.48;98911.47;5053123;28;20349;-77
2022/02/01 06:51:59;;;;;;;3.13;1.80;;;;;;;7.63;50.57;98918.53;5052541;28;20120;-76
2022/02/01 06:54:27;;;;;;;3.90;2.20;;;;;;;7.65;49.72;98932.78;5052736;28;20460;-76
2022/02/01 06:56:58;;;;;;;2.70;1.77;;;;;;;7.63;50.04;98950.94;5053155;28;20028;-76
2022/02/01 06:59:34;;;;;;;3.40;1.30;;;;;;;7.64;49.37;98941.47;5054066;28;20119;-77
2022/02/01 07:02:05;;;;;;;6.78;2.30;;;;;;;7.70;49.99;98975.97;5052346;28;20029;-76
2022/02/01 07:04:35;;;;;;;6.22;1.80;;;;;;;7.71;49.02;98953.44;5053209;28;20098;-77
2022/02/01 07:07:06;;;;;;;6.82;2.47;;;;;;;7.78;48.80;98948.00;5052502;28;20044;-76
2022/02/01 07:09:33;;;;;;;5.00;1.83;;;;;;;7.75;49.26;98954.28;5052526;28;20029;-76
2022/02/01 07:12:02;;;;;;;5.75;3.00;;;;;;;7.91;48.91;98967.16;5052234;28;20017;-76
2022/02/01 07:14:30;;;;;;;3.15;2.15;;;;;;;7.82;49.43;98970.19;5052978;28;20375;-76
2022/02/01 07:16:56;;;;;;;5.20;2.50;;;;;;;7.76;49.31;98977.22;5051989;28;20063;-76
2022/02/01 07:19:21;;;;;;;2.13;1.77;;;;;;;7.98;47.79;98968.03;5051852;28;20467;-76
2022/02/01 07:21:48;;;;;;;4.88;2.13;;;;;;;8.08;47.49;98975.69;5051924;28;20029;-76
2022/02/01 07:24:17;;;;;;;8.40;2.17;;;;;;;8.36;47.62;99004.97;5053851;28;20033;-76
2022/02/01 07:26:53;;;;;;;2.30;1.67;;;;;;;8.10;47.22;99008.59;5052001;28;20116;-76
2022/02/01 07:29:20;;;;;;;3.50;1.92;;;;;;;7.93;48.58;98998.03;5054576;28;20036;-76
2022/02/01 07:31:48;;;;;;;11.13;2.30;;;;;;;8.17;47.97;98992.06;5055539;28;20037;-76
2022/02/01 07:34:14;;;;;;;6.97;2.28;;;;;;;8.07;48.67;99012.09;5055942;28;20510;-76
2022/02/01 07:36:42;;;;;;;4.22;2.58;;;;;;;8.01;48.83;99014.41;5055745;28;20033;-76
2022/02/01 07:39:08;;;;;;;4.00;2.30;;;;;;;8.01;50.13;99016.38;5056922;28;20036;-76
2022/02/01 07:41:33;;;;;;;6.88;3.00;;;;;;;7.95;49.90;99018.66;5055942;28;20033;-77
2022/02/01 07:43:59;;;;;;;8.90;2.80;;;;;;;7.96;49.31;98992.56;5055546;28;20449;-76
2022/02/01 07:46:25;;;;;;;6.60;2.85;;;;;;;8.04;50.11;99021.16;5055488;28;20037;-77
2022/02/01 07:48:53;;;;;;;7.40;2.28;;;;;;;8.47;49.55;99032.84;5055543;28;20094;-76
2022/02/01 07:51:21;;;;;;;4.28;2.55;;;;;;;8.05;50.31;99029.09;5055815;28;20033;-77
2022/02/01 07:53:47;;;;;;;4.65;2.28;;;;;;;7.94;50.84;99016.28;5054682;28;20095;-77
2022/02/01 07:56:15;;;;;;;8.27;3.40;;;;;;;8.08;51.09;99035.84;5055251;28;20463;-77
2022/02/01 07:58:40;;;;;;;13.15;3.72;;;;;;;8.13;50.74;99024.44;5055231;28;20029;-77
2022/02/01 08:01:08;;;;;;;7.35;3.13;;;;;;;8.21;51.16;99040.00;5055215;28;20111;-77
2022/02/01 08:03:37;;;;;;;7.50;4.68;;;;;;;8.13;51.77;99030.00;5055765;28;20056;-77
2022/02/01 08:06:08;;;;;;;7.07;4.00;;;;;;;8.37;51.44;99048.97;5056005;28;20439;-77
2022/02/01 08:08:38;;;;;;;4.75;3.47;;;;;;;8.41;50.56;99049.00;5055682;28;20033;-77
2022/02/01 08:11:11;;;;;;;5.88;3.70;;;;;;;8.27;52.10;99043.25;5039456;28;20369;-77
2022/02/01 08:14:27;;;;;;;7.43;3.72;;;;;;;8.26;52.80;99047.22;5055287;28;20459;-77
2022/02/01 08:19:01;;;;;;;5.53;3.25;;;;;;;7.94;57.10;99074.44;5056663;28;20037;-77
2022/02/01 08:21:31;;;;;;;3.38;2.63;;;;;;;7.55;60.60;99077.34;5054873;28;20025;-77
2022/02/01 08:24:02;;;;;;;5.70;2.60;;;;;;;7.61;61.44;99054.50;5054768;28;20029;-77
2022/02/01 08:26:28;;;;;;;3.47;2.33;;;;;;;7.33;63.60;99060.38;5054832;28;20031;-77
2022/02/01 08:28:59;;;;;;;4.25;2.95;;;;;;;7.09;62.97;99064.31;5055305;28;20071;-77
2022/02/01 08:31:24;;;;;;;5.03;3.17;;;;;;;7.03;62.94;99076.84;5054967;28;20556;-77
2022/02/01 08:33:55;;;;;;;2.95;2.40;;;;;;;6.87;63.54;99067.81;5056709;28;20123;-77
2022/02/01 08:36:21;;;;;;;6.88;5.10;;;;;;;7.01;64.11;99081.91;5058200;28;20029;-77
2022/02/01 08:38:49;;;;;;;7.93;4.32;;;;;;;7.00;63.34;99074.00;5058364;28;20028;-77
2022/02/01 08:41:20;;;;;;;8.25;3.65;;;;;;;7.04;62.17;99063.81;5057231;28;20028;-77
2022/02/01 08:43:53;;;;;;;5.15;3.53;;;;;;;7.13;60.73;99069.09;5057701;28;20048;-77
2022/02/01 08:46:20;;;;;;;17.75;9.93;;;;;;;7.64;59.54;99063.28;5057979;28;20482;-77
2022/02/01 08:48:47;;;;;;;12.48;7.18;;;;;;;7.47;59.79;99070.91;5057726;28;20127;-77
2022/02/01 08:51:15;;;;;;;11.07;6.78;;;;;;;7.52;59.51;99067.81;5057890;28;20467;-77
2022/02/01 08:53:53;;;;;;;9.10;6.75;;;;;;;7.46;58.53;99040.84;5057634;28;20029;-77
2022/02/01 08:59:11;;;;;;;7.30;4.38;;;;;;;7.55;57.40;99060.75;5060294;28;20101;-77
2022/02/01 09:01:42;;;;;;;5.75;2.83;;;;;;;7.53;57.67;99063.09;5057433;28;20024;-77
2022/02/01 09:04:11;;;;;;;9.27;4.40;;;;;;;8.22;55.84;99069.31;5057752;28;20040;-77
2022/02/01 09:06:41;;;;;;;11.15;5.20;;;;;;;8.12;55.34;99078.28;5057893;28;20385;-77
2022/02/01 09:09:07;;;;;;;13.20;5.18;;;;;;;8.10;55.83;99091.72;5057384;28;20063;-77
2022/02/01 09:11:35;;;;;;;7.07;4.82;;;;;;;7.99;55.22;99091.53;5057768;28;20052;-77
2022/02/01 09:14:07;;;;;;;7.13;3.05;;;;;;;8.19;53.93;99100.53;5057745;28;20124;-77
2022/02/01 09:16:36;;;;;;;5.60;3.78;;;;;;;8.12;54.00;99089.34;5058100;28;20468;-77
2022/02/01 09:19:01;;;;;;;10.52;3.90;;;;;;;8.22;54.17;99094.25;5057322;28;20032;-77
2022/02/01 09:21:33;;;;;;;10.95;4.20;;;;;;;8.19;52.84;99099.72;5057662;28;20025;-77
2022/02/01 09:23:58;;;;;;;5.55;3.20;;;;;;;8.75;51.50;99091.44;5075087;28;20047;-77
2022/02/01 09:26:29;;;;;;;14.90;4.90;;;;;;;9.15;50.93;99117.66;5057319;28;20029;-77
2022/02/01 09:29:00;;;;;;;9.60;3.72;;;;;;;9.49;49.82;99123.22;5057642;28;20033;-77
2022/02/01 09:31:26;;;;;;;6.72;3.83;;;;;;;9.41;50.33;99112.00;5057352;28;20036;-77
2022/02/01 09:33:57;;;;;;;6.18;3.95;;;;;;;9.79;49.32;99146.09;5056790;28;20043;-77
2022/02/01 09:36:29;;;;;;;11.00;4.70;;;;;;;9.92;48.20;99122.41;5057202;28;20442;-77
2022/02/01 09:38:57;;;;;;;13.85;4.95;;;;;;;10.03;47.00;99121.72;5056741;28;20035;-77
2022/02/01 09:41:32;;;;;;;10.23;6.22;;;;;;;9.72;48.13;99109.94;5057098;28;20455;-77
2022/02/01 09:44:00;;;;;;;15.77;6.72;;;;;;;10.36;47.34;99124.38;5056878;28;20123;-77
2022/02/01 09:46:26;;;;;;;8.75;4.43;;;;;;;10.33;46.35;99130.69;5056991;28;20116;-77
2022/02/01 09:48:55;;;;;;;12.85;5.50;;;;;;;10.53;45.07;99113.75;5057578;28;20059;-77
2022/02/01 09:51:23;;;;;;;9.20;5.55;;;;;;;10.78;44.46;99117.47;5058442;28;20020;-77
2022/02/01 09:53:58;;;;;;;9.13;5.28;;;;;;;10.94;44.68;99126.28;5075979;28;20032;-77
2022/02/01 09:56:29;;;;;;;9.73;4.47;;;;;;;10.73;44.42;99137.31;5057659;28;20108;-76
2022/02/01 09:58:58;;;;;;;8.30;5.15;;;;;;;10.93;43.99;99127.47;5057605;28;20040;-76
2022/02/01 10:01:31;;;;;;;12.63;6.30;;;;;;;10.33;44.72;99108.44;5057916;28;20032;-76
2022/02/01 10:04:07;;;;;;;10.63;6.60;;;;;;;10.99;43.74;99125.09;5057372;28;20044;-76
2022/02/01 10:06:38;;;;;;;12.43;7.53;;;;;;;11.29;43.12;99124.81;5074974;28;20034;-76
2022/02/01 10:09:03;;;;;;;18.00;9.27;;;;;;;11.29;43.35;99152.66;5056258;28;20028;-76
2022/02/01 10:11:46;;;;;;;12.95;7.80;;;;;;;11.31;42.58;99141.94;5055877;28;20097;-76
2022/02/01 10:14:30;;;;;;;14.90;8.02;;;;;;;11.57;42.45;99140.03;5057182;28;20032;-76
2022/02/01 10:16:59;;;;;;;16.00;6.28;;;;;;;11.28;43.20;99151.84;5074798;28;20052;-76
2022/02/01 10:19:30;;;;;;;12.27;6.32;;;;;;;10.80;42.92;99142.91;5057059;28;20056;-76
2022/02/01 10:22:02;;;;;;;10.40;5.80;;;;;;;10.37;45.44;99142.63;5056081;28;20092;-77
2022/02/01 10:24:34;;;;;;;12.15;5.95;;;;;;;10.13;43.97;99144.03;5074621;28;20028;-76
2022/02/01 10:27:21;;;;;;;6.78;4.40;;;;;;;9.74;45.15;99145.66;5056463;28;20020;-76
2022/02/01 10:30:11;;;;;;;13.30;5.63;;;;;;;10.30;44.85;99123.13;5055961;28;20040;-76
2022/02/01 10:38:00;;;;;;;14.75;8.48;;;;;;;11.02;42.86;99119.56;5074871;28;20055;-76
2022/02/01 10:40:42;;;;;;;14.30;8.07;;;;;;;11.37;42.78;99148.72;5056330;28;20032;-77
2022/02/01 10:43:40;;;;;;;16.42;6.25;;;;;;;11.11;43.38;99133.09;5056124;28;20485;-76
2022/02/01 10:46:18;;;;;;;12.75;4.95;;;;;;;11.42;42.83;99139.97;5055718;28;20097;-77
2022/02/01 10:48:54;;;;;;;10.80;6.03;;;;;;;11.54;42.13;99142.38;5073748;28;20025;-76
2022/02/01 10:51:26;;;;;;;13.13;5.70;;;;;;;11.61;41.60;99129.66;5055717;28;20036;-76
2022/02/01 10:53:56;;;;;;;22.13;10.70;;;;;;;11.50;42.65;99144.38;5056296;28;20025;-76
2022/02/01 10:56:23;;;;;;;10.57;5.85;;;;;;;11.03;43.48;99137.06;5074161;28;20070;-76
2022/02/01 10:58:50;;;;;;;10.15;6.00;;;;;;;10.82;44.62;99142.53;5055783;28;20382;-76
2022/02/01 11:01:16;;;;;;;11.15;5.45;;;;;;;11.34;43.61;99143.91;5056579;28;20058;-77
2022/02/01 11:03:50;;;;;;;10.40;5.15;;;;;;;11.25;43.86;99151.88;5057568;28;20028;-76
2022/02/01 11:06:18;;;;;;;7.78;5.03;;;;;;;11.16;43.09;99148.63;5060275;28;20139;-76
2022/02/01 11:08:48;;;;;;;9.30;5.00;;;;;;;10.70;44.37;99149.19;5059651;28;20036;-76
2022/02/01 11:11:21;;;;;;;7.53;4.97;;;;;;;10.47;44.82;99157.81;5060201;28;20405;-76
2022/02/01 11:13:49;;;;;;;27.92;15.40;;;;;;;10.25;46.06;99170.75;5059498;28;20060;-76
2022/02/01 11:16:35;;;;;;;9.57;5.40;;;;;;;10.04;45.08;99163.00;5043033;28;20028;-76
2022/02/01 11:19:07;;;;;;;9.48;5.07;;;;;;;10.08;44.90;99165.81;5059771;28;20063;-76
2022/02/01 11:21:53;;;;;;;10.70;6.80;;;;;;;9.96;46.33;99153.81;5078057;28;20051;-76
2022/02/01 11:24:38;;;;;;;12.40;5.95;;;;;;;10.00;46.40;99155.81;5059129;28;20020;-76
2022/02/01 11:27:17;;;;;;;8.18;4.00;;;;;;;10.15;45.97;99157.53;5059172;28;20119;-76
2022/02/01 11:30:11;;;;;;;11.05;4.95;;;;;;;10.51;44.79;99174.53;5078039;28;20032;-76
2022/02/01 11:32:59;;;;;;;10.20;3.83;;;;;;;10.84;41.37;99163.19;5059148;28;20033;-76
2022/02/01 11:35:27;;;;;;;10.38;5.35;;;;;;;11.26;41.59;99182.09;5055622;28;20052;-76
2022/02/01 11:38:03;;;;;;;13.02;4.53;;;;;;;11.30;40.92;99176.53;5056521;28;20037;-76
2022/02/01 11:40:42;;;;;;;10.48;4.65;;;;;;;11.46;39.41;99182.56;5056578;28;20029;-76
2022/02/01 11:43:12;;;;;;;8.35;3.55;;;;;;;11.54;39.21;99172.22;5055750;28;20027;-76
2022/02/01 11:45:56;;;;;;;5.53;2.85;;;;;;;11.76;38.73;99179.44;5055900;28;20033;-76
2022/02/01 11:48:23;;;;;;;5.47;2.65;;;;;;;11.48;39.13;99160.69;5057208;28;20068;-76
2022/02/01 11:50:55;;;;;;;6.82;3.42;;;;;;;11.49;38.71;99159.47;5056202;28;20040;-76
2022/02/01 11:53:45;;;;;;;9.38;5.85;;;;;;;11.35;40.30;99189.28;5056186;28;20420;-76
2022/02/01 11:56:17;;;;;;;23.55;15.23;;;;;;;10.85;41.85;99187.06;5055572;28;20033;-76
2022/02/01 11:58:56;;;;;;;9.07;4.82;;;;;;;10.44;42.62;99209.44;5055544;28;20036;-76
2022/02/01 12:01:24;;;;;;;7.22;4.57;;;;;;;10.26;43.79;99186.25;5057522;28;20040;-76
2022/02/01 12:04:16;;;;;;;9.93;6.22;;;;;;;10.13;44.64;99201.59;5055494;28;20025;-76
2022/02/01 12:06:56;;;;;;;4.55;3.60;;;;;;;10.02;45.73;99214.59;5056597;28;20025;-76
2022/02/01 12:09:26;;;;;;;11.20;3.67;;;;;;;9.82;45.82;99195.34;5055332;28;20033;-76
2022/02/01 12:12:00;;;;;;;5.40;3.90;;;;;;;9.93;45.21;99206.56;5055523;28;20418;-76
2022/02/01 12:14:31;;;;;;;5.28;4.25;;;;;;;9.82;45.77;99206.47;5054324;28;20491;-76
2022/02/01 12:17:03;;;;;;;9.95;6.60;;;;;;;10.07;44.16;99200.38;5055409;28;20087;-76
2022/02/01 12:19:55;;;;;;;6.95;3.97;;;;;;;10.30;44.34;99214.88;5055219;28;20025;-76
2022/02/01 12:22:36;;;;;;;13.20;5.40;;;;;;;10.54;43.55;99190.41;5055884;28;20023;-76
2022/02/01 12:25:11;;;;;;;10.13;5.57;;;;;;;10.70;43.23;99208.41;5056083;28;20060;-76
2022/02/01 12:27:45;;;;;;;9.35;4.30;;;;;;;10.97;42.33;99203.44;5056970;28;20025;-76
2022/02/01 12:30:17;;;;;;;9.57;4.72;;;;;;;10.91;42.35;99193.84;5056334;28;20146;-76
2022/02/01 12:33:18;;;;;;;9.25;3.85;;;;;;;10.60;41.79;99208.34;5055891;28;20025;-76
2022/02/01 12:35:46;;;;;;;5.70;4.03;;;;;;;10.67;42.38;99216.75;5054787;28;20132;-76
2022/02/01 12:38:22;;;;;;;9.23;4.70;;;;;;;10.94;42.80;99220.91;5056476;28;20021;-76
2022/02/01 12:40:59;;;;;;;10.73;4.90;;;;;;;10.92;42.42;99220.50;5057200;28;20060;-76
2022/02/01 12:43:32;;;;;;;6.00;2.97;;;;;;;10.56;42.82;99241.72;5055863;28;20039;-75
2022/02/01 12:46:30;;;;;;;5.25;2.63;;;;;;;10.33;45.11;99250.25;5056918;28;20083;-76
2022/02/01 12:48:56;;;;;;;7.72;3.58;;;;;;;10.05;44.89;99269.41;5056826;28;20067;-77
2022/02/01 12:51:37;;;;;;;10.60;5.70;;;;;;;9.93;46.55;99256.59;5055636;28;20485;-76
2022/02/01 12:54:05;;;;;;;17.38;7.53;;;;;;;10.10;46.25;99269.88;5054998;28;20069;-76
2022/02/01 12:56:33;;;;;;;8.40;6.40;;;;;;;10.27;45.09;99274.03;5055440;28;20029;-76
2022/02/01 12:59:02;;;;;;;8.25;4.43;;;;;;;10.30;44.89;99275.25;5054850;28;20029;-76
2022/02/01 13:01:30;;;;;;;5.95;4.05;;;;;;;10.37;44.24;99276.09;5054704;28;20086;-76
2022/02/01 13:04:03;;;;;;;5.15;2.97;;;;;;;10.41;43.92;99278.94;5055015;28;20091;-76
2022/02/01 13:06:35;;;;;;;6.65;2.35;;;;;;;10.57;43.21;99300.91;5054666;28;20405;-76
2022/02/01 13:14:54;;;;;;;5.75;3.60;;;;;;;10.98;41.44;99285.75;5055974;28;20067;-76
2022/02/01 13:20:09;;;;;;;7.28;3.95;;;;;;;11.23;41.17;99262.81;5055524;28;20033;-76
2022/02/01 13:22:35;;;;;;;7.03;3.53;;;;;;;11.36;41.67;99283.59;5055732;28;20031;-76
2022/02/01 13:25:05;;;;;;;5.10;3.03;;;;;;;10.75;41.85;99251.78;5053763;28;20033;-76